sensor_id;sensor_type;location;lat;lon;timestamp;P1;durP1;ratioP1;P2;durP2;ratioP2
66587;SDS011;53446;50.076;8.198;2022-09-20T00:00:40;10.10;;;2.25;;
66587;SDS011;53446;50.076;8.198;2022-09-20T00:02:41;8.00;;;1.90;;
66587;SDS011;53446;50.076;8.198;2022-09-20T00:04:41;11.53;;;2.40;;
66587;SDS011;53446;50.076;8.198;2022-09-20T00:06:41;11.70;;;2.33;;
66587;SDS011;53446;50.076;8.198;2022-09-20T00:08:43;9.38;;;2.08;;
66587;SDS011;53446;50.076;8.198;2022-09-20T00:10:43;11.57;;;2.10;;
66587;SDS011;53446;50.076;8.198;2022-09-20T00:12:43;9.60;;;1.95;;
66587;SDS011;53446;50.076;8.198;2022-09-20T00:14:44;8.73;;;2.08;;
66587;SDS011;53446;50.076;8.198;2022-09-20T00:16:44;7.40;;;1.67;;
66587;SDS011;53446;50.076;8.198;2022-09-20T00:18:48;7.13;;;1.97;;
66587;SDS011;53446;50.076;8.198;2022-09-20T00:20:49;9.57;;;2.10;;
66587;SDS011;53446;50.076;8.198;2022-09-20T00:22:50;8.20;;;2.10;;
66587;SDS011;53446;50.076;8.198;2022-09-20T00:24:50;7.43;;;2.47;;
66587;SDS011;53446;50.076;8.198;2022-09-20T00:26:50;10.48;;;2.95;;
66587;SDS011;53446;50.076;8.198;2022-09-20T00:28:51;10.15;;;2.80;;
66587;SDS011;53446;50.076;8.198;2022-09-20T00:30:51;6.73;;;2.87;;
66587;SDS011;53446;50.076;8.198;2022-09-20T00:32:52;7.90;;;2.55;;
66587;SDS011;53446;50.076;8.198;2022-09-20T00:34:52;6.63;;;2.47;;
66587;SDS011;53446;50.076;8.198;2022-09-20T00:37:09;7.43;;;2.70;;
66587;SDS011;53446;50.076;8.198;2022-09-20T00:39:10;9.88;;;2.75;;
66587;SDS011;53446;50.076;8.198;2022-09-20T00:41:12;10.23;;;3.20;;
66587;SDS011;53446;50.076;8.198;2022-09-20T00:43:13;12.13;;;3.17;;
66587;SDS011;53446;50.076;8.198;2022-09-20T00:52:28;8.80;;;2.88;;
66587;SDS011;53446;50.076;8.198;2022-09-20T00:54:29;8.80;;;3.10;;
66587;SDS011;53446;50.076;8.198;2022-09-20T00:56:31;9.82;;;3.30;;
66587;SDS011;53446;50.076;8.198;2022-09-20T00:58:35;11.05;;;3.20;;
66587;SDS011;53446;50.076;8.198;2022-09-20T01:00:38;15.07;;;3.63;;
66587;SDS011;53446;50.076;8.198;2022-09-20T01:02:40;13.02;;;3.83;;
66587;SDS011;53446;50.076;8.198;2022-09-20T01:04:42;9.45;;;2.65;;
66587;SDS011;53446;50.076;8.198;2022-09-20T01:06:43;12.00;;;3.10;;
66587;SDS011;53446;50.076;8.198;2022-09-20T01:08:46;8.65;;;3.25;;
66587;SDS011;53446;50.076;8.198;2022-09-20T01:10:48;11.53;;;3.73;;
66587;SDS011;53446;50.076;8.198;2022-09-20T01:12:49;10.48;;;3.03;;
66587;SDS011;53446;50.076;8.198;2022-09-20T01:14:50;11.38;;;3.20;;
66587;SDS011;53446;50.076;8.198;2022-09-20T01:16:52;10.70;;;3.30;;
66587;SDS011;53446;50.076;8.198;2022-09-20T01:18:55;9.20;;;2.90;;
66587;SDS011;53446;50.076;8.198;2022-09-20T01:20:56;11.05;;;3.50;;
66587;SDS011;53446;50.076;8.198;2022-09-20T01:25:14;12.48;;;3.10;;
66587;SDS011;53446;50.076;8.198;2022-09-20T01:27:20;7.77;;;2.20;;
66587;SDS011;53446;50.076;8.198;2022-09-20T01:32:00;6.30;;;2.17;;
66587;SDS011;53446;50.076;8.198;2022-09-20T01:34:20;8.10;;;2.15;;
66587;SDS011;53446;50.076;8.198;2022-09-20T01:36:32;9.73;;;2.45;;
66587;SDS011;53446;50.076;8.198;2022-09-20T01:38:44;10.67;;;2.57;;
66587;SDS011;53446;50.076;8.198;2022-09-20T01:41:07;9.73;;;2.33;;
66587;SDS011;53446;50.076;8.198;2022-09-20T01:43:15;9.52;;;2.60;;
66587;SDS011;53446;50.076;8.198;2022-09-20T01:45:22;10.82;;;2.58;;
66587;SDS011;53446;50.076;8.198;2022-09-20T01:49:42;8.93;;;2.50;;
66587;SDS011;53446;50.076;8.198;2022-09-20T01:54:37;9.40;;;2.22;;
66587;SDS011;53446;50.076;8.198;2022-09-20T01:56:50;12.32;;;2.03;;
66587;SDS011;53446;50.076;8.198;2022-09-20T02:09:02;8.48;;;2.42;;
66587;SDS011;53446;50.076;8.198;2022-09-20T02:11:11;11.25;;;2.80;;
66587;SDS011;53446;50.076;8.198;2022-09-20T02:19:56;13.73;;;3.63;;
66587;SDS011;53446;50.076;8.198;2022-09-20T02:29:31;10.30;;;3.28;;
66587;SDS011;53446;50.076;8.198;2022-09-20T02:31:15;11.48;;;4.57;;
66587;SDS011;53446;50.076;8.198;2022-09-20T02:42:46;8.65;;;3.05;;
66587;SDS011;53446;50.076;8.198;2022-09-20T02:45:06;9.82;;;3.20;;
66587;SDS011;53446;50.076;8.198;2022-09-20T02:47:26;7.03;;;2.60;;
66587;SDS011;53446;50.076;8.198;2022-09-20T02:52:19;11.77;;;3.20;;
66587;SDS011;53446;50.076;8.198;2022-09-20T02:54:44;13.32;;;2.65;;
66587;SDS011;53446;50.076;8.198;2022-09-20T02:57:06;11.32;;;3.13;;
66587;SDS011;53446;50.076;8.198;2022-09-20T03:03:30;10.15;;;3.83;;
66587;SDS011;53446;50.076;8.198;2022-09-20T03:08:25;12.25;;;4.25;;
66587;SDS011;53446;50.076;8.198;2022-09-20T03:11:02;10.37;;;3.70;;
66587;SDS011;53446;50.076;8.198;2022-09-20T03:15:19;11.00;;;4.13;;
66587;SDS011;53446;50.076;8.198;2022-09-20T03:19:50;10.77;;;3.83;;
66587;SDS011;53446;50.076;8.198;2022-09-20T03:31:23;11.00;;;3.83;;
66587;SDS011;53446;50.076;8.198;2022-09-20T03:38:36;10.60;;;3.90;;
66587;SDS011;53446;50.076;8.198;2022-09-20T03:45:38;9.07;;;3.47;;
66587;SDS011;53446;50.076;8.198;2022-09-20T03:47:56;10.38;;;4.60;;
66587;SDS011;53446;50.076;8.198;2022-09-20T03:50:06;11.18;;;4.63;;
66587;SDS011;53446;50.076;8.198;2022-09-20T03:52:18;10.88;;;3.90;;
66587;SDS011;53446;50.076;8.198;2022-09-20T03:56:52;14.50;;;5.00;;
66587;SDS011;53446;50.076;8.198;2022-09-20T03:59:04;10.52;;;4.50;;
66587;SDS011;53446;50.076;8.198;2022-09-20T04:06:12;14.13;;;4.50;;
66587;SDS011;53446;50.076;8.198;2022-09-20T04:11:06;10.88;;;4.07;;
66587;SDS011;53446;50.076;8.198;2022-09-20T04:16:34;11.02;;;4.60;;
66587;SDS011;53446;50.076;8.198;2022-09-20T04:20:51;8.27;;;3.80;;
66587;SDS011;53446;50.076;8.198;2022-09-20T04:22:57;10.48;;;3.65;;
66587;SDS011;53446;50.076;8.198;2022-09-20T04:25:12;10.40;;;4.40;;
66587;SDS011;53446;50.076;8.198;2022-09-20T04:27:16;14.60;;;5.13;;
66587;SDS011;53446;50.076;8.198;2022-09-20T04:31:54;15.40;;;5.53;;
66587;SDS011;53446;50.076;8.198;2022-09-20T04:33:58;19.83;;;7.10;;
66587;SDS011;53446;50.076;8.198;2022-09-20T04:36:02;12.27;;;5.57;;
66587;SDS011;53446;50.076;8.198;2022-09-20T04:38:30;16.35;;;5.55;;
66587;SDS011;53446;50.076;8.198;2022-09-20T04:40:46;11.60;;;5.03;;
66587;SDS011;53446;50.076;8.198;2022-09-20T04:43:31;11.45;;;5.00;;
66587;SDS011;53446;50.076;8.198;2022-09-20T04:48:15;14.43;;;5.22;;
66587;SDS011;53446;50.076;8.198;2022-09-20T05:04:42;12.75;;;5.00;;
66587;SDS011;53446;50.076;8.198;2022-09-20T05:14:15;16.65;;;5.13;;
66587;SDS011;53446;50.076;8.198;2022-09-20T05:30:44;9.57;;;4.20;;
66587;SDS011;53446;50.076;8.198;2022-09-20T05:37:53;13.10;;;4.70;;
66587;SDS011;53446;50.076;8.198;2022-09-20T05:42:42;10.80;;;3.95;;
66587;SDS011;53446;50.076;8.198;2022-09-20T05:44:55;14.82;;;4.70;;
66587;SDS011;53446;50.076;8.198;2022-09-20T05:47:23;10.88;;;4.70;;
66587;SDS011;53446;50.076;8.198;2022-09-20T05:59:14;12.68;;;4.15;;
66587;SDS011;53446;50.076;8.198;2022-09-20T06:01:23;10.00;;;4.55;;
66587;SDS011;53446;50.076;8.198;2022-09-20T06:08:14;9.27;;;3.63;;
66587;SDS011;53446;50.076;8.198;2022-09-20T06:10:25;10.52;;;4.20;;
66587;SDS011;53446;50.076;8.198;2022-09-20T06:12:54;10.15;;;4.05;;
66587;SDS011;53446;50.076;8.198;2022-09-20T06:17:23;18.00;;;7.40;;
66587;SDS011;53446;50.076;8.198;2022-09-20T06:19:30;13.15;;;4.80;;
66587;SDS011;53446;50.076;8.198;2022-09-20T06:23:48;15.52;;;5.82;;
66587;SDS011;53446;50.076;8.198;2022-09-20T06:25:50;12.93;;;4.90;;
66587;SDS011;53446;50.076;8.198;2022-09-20T06:28:00;11.20;;;4.75;;
66587;SDS011;53446;50.076;8.198;2022-09-20T06:30:28;12.57;;;4.90;;
66587;SDS011;53446;50.076;8.198;2022-09-20T06:32:32;11.48;;;4.28;;
66587;SDS011;53446;50.076;8.198;2022-09-20T06:34:33;12.93;;;4.25;;
66587;SDS011;53446;50.076;8.198;2022-09-20T06:36:35;8.63;;;4.13;;
66587;SDS011;53446;50.076;8.198;2022-09-20T06:41:32;10.35;;;4.20;;
66587;SDS011;53446;50.076;8.198;2022-09-20T06:43:36;12.45;;;4.30;;
66587;SDS011;53446;50.076;8.198;2022-09-20T06:45:39;12.85;;;4.38;;
66587;SDS011;53446;50.076;8.198;2022-09-20T06:47:40;7.95;;;3.60;;
66587;SDS011;53446;50.076;8.198;2022-09-20T06:49:40;9.83;;;4.43;;
66587;SDS011;53446;50.076;8.198;2022-09-20T06:51:41;12.20;;;3.70;;
66587;SDS011;53446;50.076;8.198;2022-09-20T06:53:42;18.88;;;4.53;;
66587;SDS011;53446;50.076;8.198;2022-09-20T06:55:43;9.50;;;3.83;;
66587;SDS011;53446;50.076;8.198;2022-09-20T06:57:43;9.95;;;3.80;;
66587;SDS011;53446;50.076;8.198;2022-09-20T06:59:44;7.55;;;3.13;;
66587;SDS011;53446;50.076;8.198;2022-09-20T07:01:45;12.73;;;4.27;;
66587;SDS011;53446;50.076;8.198;2022-09-20T07:03:45;17.57;;;6.97;;
66587;SDS011;53446;50.076;8.198;2022-09-20T07:05:45;14.60;;;4.20;;
66587;SDS011;53446;50.076;8.198;2022-09-20T07:07:46;11.63;;;3.40;;
66587;SDS011;53446;50.076;8.198;2022-09-20T07:09:46;10.07;;;3.40;;
66587;SDS011;53446;50.076;8.198;2022-09-20T07:11:46;11.93;;;3.40;;
66587;SDS011;53446;50.076;8.198;2022-09-20T07:13:54;7.90;;;3.00;;
66587;SDS011;53446;50.076;8.198;2022-09-20T07:15:59;12.63;;;3.80;;
66587;SDS011;53446;50.076;8.198;2022-09-20T07:18:03;10.07;;;3.80;;
66587;SDS011;53446;50.076;8.198;2022-09-20T07:20:04;11.75;;;4.00;;
66587;SDS011;53446;50.076;8.198;2022-09-20T07:22:04;10.57;;;3.70;;
66587;SDS011;53446;50.076;8.198;2022-09-20T07:24:05;13.52;;;3.85;;
66587;SDS011;53446;50.076;8.198;2022-09-20T07:26:05;12.40;;;3.50;;
66587;SDS011;53446;50.076;8.198;2022-09-20T07:28:06;9.85;;;3.22;;
66587;SDS011;53446;50.076;8.198;2022-09-20T07:30:07;10.00;;;3.30;;
66587;SDS011;53446;50.076;8.198;2022-09-20T07:32:08;9.38;;;3.17;;
66587;SDS011;53446;50.076;8.198;2022-09-20T07:34:08;9.35;;;3.22;;
66587;SDS011;53446;50.076;8.198;2022-09-20T07:36:10;10.52;;;3.53;;
66587;SDS011;53446;50.076;8.198;2022-09-20T07:38:13;10.55;;;3.40;;
66587;SDS011;53446;50.076;8.198;2022-09-20T07:40:14;11.90;;;3.45;;
66587;SDS011;53446;50.076;8.198;2022-09-20T07:42:15;7.75;;;3.08;;
66587;SDS011;53446;50.076;8.198;2022-09-20T07:44:16;8.17;;;3.13;;
66587;SDS011;53446;50.076;8.198;2022-09-20T07:46:20;11.73;;;3.60;;
66587;SDS011;53446;50.076;8.198;2022-09-20T07:48:23;9.95;;;3.35;;
66587;SDS011;53446;50.076;8.198;2022-09-20T07:50:49;10.45;;;3.38;;
66587;SDS011;53446;50.076;8.198;2022-09-20T07:52:50;11.15;;;3.60;;
66587;SDS011;53446;50.076;8.198;2022-09-20T07:54:51;8.10;;;3.23;;
66587;SDS011;53446;50.076;8.198;2022-09-20T07:56:51;8.33;;;3.30;;
66587;SDS011;53446;50.076;8.198;2022-09-20T07:58:51;14.40;;;3.67;;
66587;SDS011;53446;50.076;8.198;2022-09-20T08:00:52;10.98;;;3.80;;
66587;SDS011;53446;50.076;8.198;2022-09-20T08:03:03;12.23;;;3.67;;
66587;SDS011;53446;50.076;8.198;2022-09-20T08:05:05;12.88;;;3.72;;
66587;SDS011;53446;50.076;8.198;2022-09-20T08:07:05;14.50;;;4.20;;
66587;SDS011;53446;50.076;8.198;2022-09-20T08:09:06;10.73;;;3.30;;
66587;SDS011;53446;50.076;8.198;2022-09-20T08:11:08;7.38;;;3.00;;
66587;SDS011;53446;50.076;8.198;2022-09-20T08:13:11;8.48;;;3.33;;
66587;SDS011;53446;50.076;8.198;2022-09-20T08:15:12;7.13;;;3.50;;
66587;SDS011;53446;50.076;8.198;2022-09-20T08:17:12;7.20;;;3.23;;
66587;SDS011;53446;50.076;8.198;2022-09-20T08:19:20;14.60;;;3.73;;
66587;SDS011;53446;50.076;8.198;2022-09-20T08:21:25;7.68;;;2.95;;
66587;SDS011;53446;50.076;8.198;2022-09-20T08:23:26;8.73;;;3.13;;
66587;SDS011;53446;50.076;8.198;2022-09-20T08:25:27;8.57;;;2.80;;
66587;SDS011;53446;50.076;8.198;2022-09-20T08:27:28;11.20;;;3.17;;
66587;SDS011;53446;50.076;8.198;2022-09-20T08:29:28;11.40;;;3.07;;
66587;SDS011;53446;50.076;8.198;2022-09-20T08:31:29;7.63;;;2.83;;
66587;SDS011;53446;50.076;8.198;2022-09-20T08:33:33;8.00;;;3.10;;
66587;SDS011;53446;50.076;8.198;2022-09-20T08:35:35;8.88;;;2.63;;
66587;SDS011;53446;50.076;8.198;2022-09-20T08:37:35;10.73;;;3.27;;
66587;SDS011;53446;50.076;8.198;2022-09-20T08:39:36;7.23;;;3.00;;
66587;SDS011;53446;50.076;8.198;2022-09-20T08:41:47;8.93;;;3.40;;
66587;SDS011;53446;50.076;8.198;2022-09-20T08:43:55;8.05;;;2.90;;
66587;SDS011;53446;50.076;8.198;2022-09-20T08:45:59;12.10;;;2.90;;
66587;SDS011;53446;50.076;8.198;2022-09-20T08:48:02;9.93;;;3.03;;
66587;SDS011;53446;50.076;8.198;2022-09-20T08:50:05;12.23;;;3.22;;
66587;SDS011;53446;50.076;8.198;2022-09-20T08:52:07;9.18;;;3.00;;
66587;SDS011;53446;50.076;8.198;2022-09-20T08:54:17;10.80;;;2.80;;
66587;SDS011;53446;50.076;8.198;2022-09-20T08:56:18;10.17;;;3.47;;
66587;SDS011;53446;50.076;8.198;2022-09-20T08:58:19;8.77;;;2.80;;
66587;SDS011;53446;50.076;8.198;2022-09-20T09:00:20;9.53;;;3.17;;
66587;SDS011;53446;50.076;8.198;2022-09-20T09:02:22;8.48;;;3.03;;
66587;SDS011;53446;50.076;8.198;2022-09-20T09:04:23;7.37;;;2.80;;
66587;SDS011;53446;50.076;8.198;2022-09-20T09:06:24;5.28;;;2.50;;
66587;SDS011;53446;50.076;8.198;2022-09-20T09:08:26;8.73;;;3.13;;
66587;SDS011;53446;50.076;8.198;2022-09-20T09:10:30;11.20;;;3.33;;
66587;SDS011;53446;50.076;8.198;2022-09-20T09:12:35;9.95;;;3.47;;
66587;SDS011;53446;50.076;8.198;2022-09-20T09:14:35;8.93;;;3.33;;
66587;SDS011;53446;50.076;8.198;2022-09-20T09:16:47;11.80;;;3.40;;
66587;SDS011;53446;50.076;8.198;2022-09-20T09:18:48;8.37;;;3.43;;
66587;SDS011;53446;50.076;8.198;2022-09-20T09:20:49;11.30;;;3.40;;
66587;SDS011;53446;50.076;8.198;2022-09-20T09:23:04;10.90;;;3.53;;
66587;SDS011;53446;50.076;8.198;2022-09-20T09:27:18;9.75;;;3.40;;
66587;SDS011;53446;50.076;8.198;2022-09-20T09:29:19;9.50;;;3.35;;
66587;SDS011;53446;50.076;8.198;2022-09-20T09:31:23;9.85;;;3.10;;
66587;SDS011;53446;50.076;8.198;2022-09-20T09:35:28;9.07;;;3.40;;
66587;SDS011;53446;50.076;8.198;2022-09-20T09:37:29;9.60;;;3.38;;
66587;SDS011;53446;50.076;8.198;2022-09-20T09:39:31;15.25;;;3.88;;
66587;SDS011;53446;50.076;8.198;2022-09-20T09:41:36;11.17;;;3.80;;
66587;SDS011;53446;50.076;8.198;2022-09-20T09:43:37;9.75;;;3.58;;
66587;SDS011;53446;50.076;8.198;2022-09-20T09:45:39;29.50;;;9.70;;
66587;SDS011;53446;50.076;8.198;2022-09-20T09:47:39;11.33;;;4.30;;
66587;SDS011;53446;50.076;8.198;2022-09-20T09:49:40;11.88;;;3.30;;
66587;SDS011;53446;50.076;8.198;2022-09-20T09:54:01;9.00;;;3.40;;
66587;SDS011;53446;50.076;8.198;2022-09-20T09:56:15;6.97;;;3.08;;
66587;SDS011;53446;50.076;8.198;2022-09-20T09:58:30;8.45;;;3.35;;
66587;SDS011;53446;50.076;8.198;2022-09-20T10:00:38;7.33;;;2.87;;
66587;SDS011;53446;50.076;8.198;2022-09-20T10:05:05;7.80;;;3.20;;
66587;SDS011;53446;50.076;8.198;2022-09-20T10:07:22;7.32;;;3.00;;
66587;SDS011;53446;50.076;8.198;2022-09-20T10:12:07;8.90;;;2.90;;
66587;SDS011;53446;50.076;8.198;2022-09-20T10:14:46;8.80;;;2.55;;
66587;SDS011;53446;50.076;8.198;2022-09-20T10:19:08;7.40;;;2.85;;
66587;SDS011;53446;50.076;8.198;2022-09-20T10:21:22;9.15;;;3.20;;
66587;SDS011;53446;50.076;8.198;2022-09-20T10:26:18;8.23;;;2.65;;
66587;SDS011;53446;50.076;8.198;2022-09-20T10:31:11;8.27;;;2.35;;
66587;SDS011;53446;50.076;8.198;2022-09-20T10:33:26;6.25;;;2.40;;
66587;SDS011;53446;50.076;8.198;2022-09-20T10:40:21;7.45;;;2.35;;
66587;SDS011;53446;50.076;8.198;2022-09-20T10:42:47;7.53;;;2.00;;
66587;SDS011;53446;50.076;8.198;2022-09-20T10:45:10;7.97;;;2.30;;
66587;SDS011;53446;50.076;8.198;2022-09-20T10:47:18;6.77;;;2.30;;
66587;SDS011;53446;50.076;8.198;2022-09-20T10:51:35;8.55;;;2.35;;
66587;SDS011;53446;50.076;8.198;2022-09-20T10:56:32;7.28;;;2.05;;
66587;SDS011;53446;50.076;8.198;2022-09-20T11:00:58;5.10;;;1.63;;
66587;SDS011;53446;50.076;8.198;2022-09-20T11:03:16;6.10;;;1.65;;
66587;SDS011;53446;50.076;8.198;2022-09-20T11:08:21;6.20;;;1.52;;
66587;SDS011;53446;50.076;8.198;2022-09-20T11:10:15;6.27;;;1.50;;
66587;SDS011;53446;50.076;8.198;2022-09-20T11:12:42;6.93;;;1.70;;
66587;SDS011;53446;50.076;8.198;2022-09-20T11:14:57;6.18;;;1.40;;
66587;SDS011;53446;50.076;8.198;2022-09-20T11:17:25;7.15;;;1.70;;
66587;SDS011;53446;50.076;8.198;2022-09-20T11:19:51;7.47;;;1.40;;
66587;SDS011;53446;50.076;8.198;2022-09-20T11:21:58;4.50;;;1.50;;
66587;SDS011;53446;50.076;8.198;2022-09-20T11:24:04;7.15;;;1.50;;
66587;SDS011;53446;50.076;8.198;2022-09-20T11:26:14;6.32;;;1.65;;
66587;SDS011;53446;50.076;8.198;2022-09-20T11:28:32;4.53;;;1.55;;
66587;SDS011;53446;50.076;8.198;2022-09-20T11:30:35;4.93;;;1.48;;
66587;SDS011;53446;50.076;8.198;2022-09-20T11:35:26;6.00;;;1.73;;
66587;SDS011;53446;50.076;8.198;2022-09-20T11:37:25;5.93;;;1.70;;
66587;SDS011;53446;50.076;8.198;2022-09-20T11:39:40;7.47;;;1.85;;
66587;SDS011;53446;50.076;8.198;2022-09-20T11:41:42;6.05;;;1.80;;
66587;SDS011;53446;50.076;8.198;2022-09-20T11:43:43;9.50;;;2.37;;
66587;SDS011;53446;50.076;8.198;2022-09-20T11:45:45;7.38;;;2.10;;
66587;SDS011;53446;50.076;8.198;2022-09-20T11:47:50;10.05;;;3.50;;
66587;SDS011;53446;50.076;8.198;2022-09-20T11:55:13;8.10;;;2.38;;
66587;SDS011;53446;50.076;8.198;2022-09-20T11:57:17;6.40;;;2.28;;
66587;SDS011;53446;50.076;8.198;2022-09-20T11:59:28;5.13;;;2.10;;
66587;SDS011;53446;50.076;8.198;2022-09-20T12:01:35;6.00;;;2.28;;
66587;SDS011;53446;50.076;8.198;2022-09-20T12:03:38;6.15;;;2.03;;
66587;SDS011;53446;50.076;8.198;2022-09-20T12:05:39;6.60;;;2.38;;
66587;SDS011;53446;50.076;8.198;2022-09-20T12:07:42;8.30;;;2.10;;
66587;SDS011;53446;50.076;8.198;2022-09-20T12:09:44;7.82;;;2.22;;
66587;SDS011;53446;50.076;8.198;2022-09-20T12:11:45;6.35;;;2.10;;
66587;SDS011;53446;50.076;8.198;2022-09-20T12:13:54;6.37;;;2.00;;
66587;SDS011;53446;50.076;8.198;2022-09-20T12:16:02;5.55;;;1.90;;
66587;SDS011;53446;50.076;8.198;2022-09-20T12:18:12;9.38;;;2.17;;
66587;SDS011;53446;50.076;8.198;2022-09-20T12:22:31;6.95;;;2.20;;
66587;SDS011;53446;50.076;8.198;2022-09-20T12:24:35;6.85;;;2.22;;
66587;SDS011;53446;50.076;8.198;2022-09-20T12:26:39;4.37;;;1.90;;
66587;SDS011;53446;50.076;8.198;2022-09-20T12:30:42;5.82;;;2.50;;
66587;SDS011;53446;50.076;8.198;2022-09-20T12:33:17;6.00;;;1.70;;
66587;SDS011;53446;50.076;8.198;2022-09-20T12:37:43;5.45;;;1.67;;
66587;SDS011;53446;50.076;8.198;2022-09-20T12:39:49;5.20;;;1.90;;
66587;SDS011;53446;50.076;8.198;2022-09-20T12:44:22;6.22;;;2.00;;
66587;SDS011;53446;50.076;8.198;2022-09-20T12:46:40;5.65;;;2.00;;
66587;SDS011;53446;50.076;8.198;2022-09-20T12:48:42;6.15;;;2.17;;
66587;SDS011;53446;50.076;8.198;2022-09-20T12:50:42;4.73;;;1.90;;
66587;SDS011;53446;50.076;8.198;2022-09-20T12:53:02;4.50;;;1.80;;
66587;SDS011;53446;50.076;8.198;2022-09-20T12:55:03;5.53;;;2.08;;
66587;SDS011;53446;50.076;8.198;2022-09-20T12:57:17;5.10;;;1.97;;
66587;SDS011;53446;50.076;8.198;2022-09-20T12:59:26;5.30;;;2.00;;
66587;SDS011;53446;50.076;8.198;2022-09-20T13:01:32;5.57;;;1.90;;
66587;SDS011;53446;50.076;8.198;2022-09-20T13:03:38;5.93;;;1.95;;
66587;SDS011;53446;50.076;8.198;2022-09-20T13:05:41;6.50;;;1.63;;
66587;SDS011;53446;50.076;8.198;2022-09-20T13:07:51;5.65;;;1.70;;
66587;SDS011;53446;50.076;8.198;2022-09-20T13:09:54;4.97;;;1.60;;
66587;SDS011;53446;50.076;8.198;2022-09-20T13:11:54;5.03;;;1.60;;
66587;SDS011;53446;50.076;8.198;2022-09-20T13:16:05;4.07;;;1.50;;
66587;SDS011;53446;50.076;8.198;2022-09-20T13:18:06;5.10;;;1.73;;
66587;SDS011;53446;50.076;8.198;2022-09-20T13:20:13;4.28;;;1.40;;
66587;SDS011;53446;50.076;8.198;2022-09-20T13:22:28;4.22;;;1.20;;
66587;SDS011;53446;50.076;8.198;2022-09-20T13:24:37;4.70;;;1.30;;
66587;SDS011;53446;50.076;8.198;2022-09-20T13:26:39;5.83;;;1.63;;
66587;SDS011;53446;50.076;8.198;2022-09-20T13:28:46;5.93;;;1.60;;
66587;SDS011;53446;50.076;8.198;2022-09-20T13:30:48;4.25;;;1.40;;
66587;SDS011;53446;50.076;8.198;2022-09-20T13:32:49;5.30;;;1.30;;
66587;SDS011;53446;50.076;8.198;2022-09-20T13:37:14;4.00;;;1.30;;
66587;SDS011;53446;50.076;8.198;2022-09-20T13:39:27;4.07;;;1.25;;
66587;SDS011;53446;50.076;8.198;2022-09-20T13:41:29;5.07;;;1.50;;
66587;SDS011;53446;50.076;8.198;2022-09-20T13:45:42;3.53;;;1.20;;
66587;SDS011;53446;50.076;8.198;2022-09-20T13:47:43;5.53;;;1.40;;
66587;SDS011;53446;50.076;8.198;2022-09-20T13:49:48;4.47;;;1.35;;
66587;SDS011;53446;50.076;8.198;2022-09-20T13:51:48;4.10;;;1.30;;
66587;SDS011;53446;50.076;8.198;2022-09-20T13:53:48;4.50;;;1.30;;
66587;SDS011;53446;50.076;8.198;2022-09-20T13:55:49;4.07;;;1.20;;
66587;SDS011;53446;50.076;8.198;2022-09-20T13:57:50;4.18;;;1.10;;
66587;SDS011;53446;50.076;8.198;2022-09-20T13:59:52;4.53;;;1.50;;
66587;SDS011;53446;50.076;8.198;2022-09-20T14:01:53;5.38;;;1.50;;
66587;SDS011;53446;50.076;8.198;2022-09-20T14:03:56;4.95;;;1.50;;
66587;SDS011;53446;50.076;8.198;2022-09-20T14:06:06;6.17;;;1.40;;
66587;SDS011;53446;50.076;8.198;2022-09-20T14:08:12;5.10;;;1.55;;
66587;SDS011;53446;50.076;8.198;2022-09-20T14:10:31;5.60;;;1.67;;
66587;SDS011;53446;50.076;8.198;2022-09-20T14:12:33;4.72;;;1.40;;
66587;SDS011;53446;50.076;8.198;2022-09-20T14:14:34;5.95;;;1.50;;
66587;SDS011;53446;50.076;8.198;2022-09-20T14:16:38;4.57;;;1.30;;
66587;SDS011;53446;50.076;8.198;2022-09-20T14:18:40;4.35;;;1.50;;
66587;SDS011;53446;50.076;8.198;2022-09-20T14:20:42;5.40;;;2.22;;
66587;SDS011;53446;50.076;8.198;2022-09-20T14:22:43;4.45;;;1.75;;
66587;SDS011;53446;50.076;8.198;2022-09-20T14:24:53;4.60;;;1.00;;
66587;SDS011;53446;50.076;8.198;2022-09-20T14:27:04;4.40;;;1.20;;
66587;SDS011;53446;50.076;8.198;2022-09-20T14:31:33;4.45;;;1.48;;
66587;SDS011;53446;50.076;8.198;2022-09-20T14:33:36;4.23;;;1.20;;
66587;SDS011;53446;50.076;8.198;2022-09-20T14:35:45;3.65;;;1.10;;
66587;SDS011;53446;50.076;8.198;2022-09-20T14:37:50;4.25;;;1.40;;
66587;SDS011;53446;50.076;8.198;2022-09-20T14:39:52;3.25;;;1.15;;
66587;SDS011;53446;50.076;8.198;2022-09-20T14:41:54;4.63;;;1.35;;
66587;SDS011;53446;50.076;8.198;2022-09-20T14:43:56;4.80;;;1.30;;
66587;SDS011;53446;50.076;8.198;2022-09-20T14:45:58;3.50;;;1.27;;
66587;SDS011;53446;50.076;8.198;2022-09-20T14:54:28;4.28;;;1.20;;
66587;SDS011;53446;50.076;8.198;2022-09-20T14:56:33;3.55;;;1.10;;
66587;SDS011;53446;50.076;8.198;2022-09-20T15:01:04;5.95;;;1.60;;
66587;SDS011;53446;50.076;8.198;2022-09-20T15:03:23;4.65;;;1.30;;
66587;SDS011;53446;50.076;8.198;2022-09-20T15:05:26;5.93;;;1.50;;
66587;SDS011;53446;50.076;8.198;2022-09-20T15:07:27;3.50;;;1.50;;
66587;SDS011;53446;50.076;8.198;2022-09-20T15:09:27;4.60;;;1.80;;
66587;SDS011;53446;50.076;8.198;2022-09-20T15:11:28;4.38;;;1.67;;
66587;SDS011;53446;50.076;8.198;2022-09-20T15:13:29;6.40;;;1.88;;
66587;SDS011;53446;50.076;8.198;2022-09-20T15:15:29;4.00;;;1.63;;
66587;SDS011;53446;50.076;8.198;2022-09-20T15:17:29;5.93;;;2.10;;
66587;SDS011;53446;50.076;8.198;2022-09-20T15:19:30;6.13;;;2.90;;
66587;SDS011;53446;50.076;8.198;2022-09-20T15:21:30;5.53;;;2.43;;
66587;SDS011;53446;50.076;8.198;2022-09-20T15:23:31;3.60;;;1.60;;
66587;SDS011;53446;50.076;8.198;2022-09-20T15:25:31;4.38;;;1.95;;
66587;SDS011;53446;50.076;8.198;2022-09-20T15:27:32;5.60;;;2.07;;
66587;SDS011;53446;50.076;8.198;2022-09-20T15:29:32;8.07;;;3.47;;
66587;SDS011;53446;50.076;8.198;2022-09-20T15:31:33;6.75;;;3.45;;
66587;SDS011;53446;50.076;8.198;2022-09-20T15:33:33;8.40;;;4.23;;
66587;SDS011;53446;50.076;8.198;2022-09-20T15:35:34;5.90;;;2.40;;
66587;SDS011;53446;50.076;8.198;2022-09-20T15:37:34;6.27;;;2.10;;
66587;SDS011;53446;50.076;8.198;2022-09-20T15:39:35;6.38;;;1.85;;
66587;SDS011;53446;50.076;8.198;2022-09-20T15:41:36;5.87;;;1.83;;
66587;SDS011;53446;50.076;8.198;2022-09-20T15:43:37;4.95;;;1.70;;
66587;SDS011;53446;50.076;8.198;2022-09-20T15:45:45;10.38;;;5.50;;
66587;SDS011;53446;50.076;8.198;2022-09-20T15:47:48;3.73;;;1.40;;
66587;SDS011;53446;50.076;8.198;2022-09-20T15:49:49;4.32;;;1.67;;
66587;SDS011;53446;50.076;8.198;2022-09-20T15:51:49;7.15;;;2.00;;
66587;SDS011;53446;50.076;8.198;2022-09-20T15:53:53;13.70;;;10.13;;
66587;SDS011;53446;50.076;8.198;2022-09-20T15:55:55;7.00;;;3.35;;
66587;SDS011;53446;50.076;8.198;2022-09-20T15:57:57;6.25;;;1.80;;
66587;SDS011;53446;50.076;8.198;2022-09-20T15:59:57;5.10;;;1.70;;
66587;SDS011;53446;50.076;8.198;2022-09-20T16:01:58;7.37;;;2.73;;
66587;SDS011;53446;50.076;8.198;2022-09-20T16:04:03;6.22;;;1.90;;
66587;SDS011;53446;50.076;8.198;2022-09-20T16:06:07;8.95;;;4.68;;
66587;SDS011;53446;50.076;8.198;2022-09-20T16:08:07;5.90;;;1.77;;
66587;SDS011;53446;50.076;8.198;2022-09-20T16:10:08;5.27;;;1.50;;
66587;SDS011;53446;50.076;8.198;2022-09-20T16:12:08;5.85;;;1.50;;
66587;SDS011;53446;50.076;8.198;2022-09-20T16:14:08;6.13;;;1.83;;
66587;SDS011;53446;50.076;8.198;2022-09-20T16:16:09;5.70;;;1.83;;
66587;SDS011;53446;50.076;8.198;2022-09-20T16:18:12;7.05;;;2.30;;
66587;SDS011;53446;50.076;8.198;2022-09-20T16:20:31;6.33;;;1.67;;
66587;SDS011;53446;50.076;8.198;2022-09-20T16:22:31;5.10;;;1.63;;
66587;SDS011;53446;50.076;8.198;2022-09-20T16:24:33;5.38;;;1.67;;
66587;SDS011;53446;50.076;8.198;2022-09-20T16:26:35;4.35;;;1.80;;
66587;SDS011;53446;50.076;8.198;2022-09-20T16:28:35;5.00;;;1.63;;
66587;SDS011;53446;50.076;8.198;2022-09-20T16:30:35;5.53;;;1.67;;
66587;SDS011;53446;50.076;8.198;2022-09-20T16:32:36;7.73;;;1.70;;